createdAt,value
2023-04-01T00:00:03.109Z,8.57
2023-04-01T00:02:30.054Z,4.28
2023-04-01T00:04:57.360Z,5.60
2023-04-01T00:07:24.259Z,6.78
2023-04-01T00:09:51.931Z,2.58
2023-04-01T00:12:18.806Z,3.08
2023-04-01T00:14:46.109Z,6.10
2023-04-01T00:17:13.136Z,6.28
2023-04-01T00:19:40.407Z,6.32
2023-04-01T00:22:07.419Z,6.30
2023-04-01T00:24:34.429Z,6.55
2023-04-01T00:27:01.376Z,7.90
2023-04-01T00:29:30.450Z,8.27
2023-04-01T00:31:59.896Z,7.75
2023-04-01T00:34:27.412Z,8.13
2023-04-01T00:36:55.261Z,8.05
2023-04-01T00:39:22.806Z,4.22
2023-04-01T00:41:50.456Z,5.40
2023-04-01T00:44:28.483Z,7.18
2023-04-01T00:46:55.785Z,6.18
2023-04-01T00:49:30.995Z,7.28
2023-04-01T00:52:01.316Z,7.45
2023-04-01T00:54:31.172Z,5.55
2023-04-01T00:59:38.397Z,6.75
2023-04-01T01:02:08.448Z,8.32
2023-04-01T01:04:36.940Z,12.18
2023-04-01T01:07:06.881Z,9.80
2023-04-01T01:09:55.642Z,11.00
2023-04-01T01:12:27.112Z,9.88
2023-04-01T01:14:53.948Z,11.10
2023-04-01T01:17:28.295Z,9.65
2023-04-01T01:20:07.717Z,7.50
2023-04-01T01:23:06.539Z,10.05
2023-04-01T01:25:49.452Z,8.02
2023-04-01T01:28:37.757Z,8.02
2023-04-01T01:31:38.131Z,9.40
2023-04-01T01:34:14.183Z,10.52
2023-04-01T01:36:46.295Z,10.85
2023-04-01T01:39:15.107Z,5.28
2023-04-01T01:41:46.262Z,4.60
2023-04-01T01:44:16.517Z,4.72
2023-04-01T01:46:46.003Z,7.53
2023-04-01T01:49:14.913Z,8.75
2023-04-01T01:51:44.285Z,9.23
2023-04-01T01:54:15.744Z,8.50
2023-04-01T01:56:46.380Z,6.25
2023-04-01T01:59:15.791Z,5.65
2023-04-01T02:01:47.878Z,5.85
2023-04-01T02:04:16.828Z,6.70
2023-04-01T02:06:53.673Z,4.50
2023-04-01T02:09:21.644Z,4.78
2023-04-01T02:12:05.217Z,4.35
2023-04-01T02:14:51.208Z,5.10
2023-04-01T02:17:21.724Z,6.43
2023-04-01T02:19:57.142Z,7.68
2023-04-01T02:22:33.420Z,7.57
2023-04-01T02:25:05.928Z,6.90
2023-04-01T02:27:33.270Z,9.27
2023-04-01T02:30:00.481Z,5.22
2023-04-01T02:32:30.899Z,4.37
2023-04-01T02:34:58.321Z,3.95
2023-04-01T02:37:25.299Z,5.05
2023-04-01T02:39:52.243Z,4.85
2023-04-01T02:42:19.206Z,3.95
2023-04-01T02:44:46.290Z,4.32
2023-04-01T02:47:13.280Z,4.37
2023-04-01T02:49:40.241Z,3.70
2023-04-01T02:52:07.172Z,5.15
2023-04-01T02:54:34.064Z,9.18
2023-04-01T02:57:01.004Z,5.28
2023-04-01T02:59:27.908Z,3.37
2023-04-01T03:01:54.897Z,6.45
2023-04-01T03:04:21.954Z,4.65
2023-04-01T03:06:48.773Z,4.93
2023-04-01T03:09:15.733Z,4.55
2023-04-01T03:11:42.804Z,4.70
2023-04-01T03:14:09.755Z,3.47
2023-04-01T03:16:36.699Z,5.30
2023-04-01T03:19:03.645Z,4.45
2023-04-01T03:21:30.770Z,3.42
2023-04-01T03:23:57.872Z,6.70
2023-04-01T03:26:24.728Z,4.35
2023-04-01T03:28:51.652Z,3.05
2023-04-01T03:31:18.742Z,4.57
2023-04-01T03:33:46.267Z,4.93
2023-04-01T03:36:14.006Z,3.78
2023-04-01T03:38:45.215Z,4.57
2023-04-01T03:41:16.937Z,4.03
2023-04-01T03:43:43.935Z,3.87
2023-04-01T03:46:11.077Z,2.40
2023-04-01T03:48:38.141Z,4.15
2023-04-01T03:51:09.118Z,2.97
2023-04-01T03:53:36.100Z,2.25
2023-04-01T03:56:07.447Z,3.03
2023-04-01T03:58:34.616Z,2.70
2023-04-01T04:01:01.641Z,5.03
2023-04-01T04:03:29.471Z,2.67
2023-04-01T04:05:57.559Z,3.65
2023-04-01T04:08:24.516Z,2.92
2023-04-01T04:10:57.070Z,2.70
2023-04-01T04:13:23.959Z,2.37
2023-04-01T04:15:51.039Z,4.47
2023-04-01T04:18:17.960Z,3.53
2023-04-01T04:20:48.377Z,2.83
2023-04-01T04:23:15.596Z,125.55
2023-04-01T04:25:42.691Z,109.35
2023-04-01T04:28:09.640Z,75.28
2023-04-01T04:30:36.612Z,16.37
2023-04-01T04:33:03.544Z,44.50
2023-04-01T04:35:30.950Z,60.47
2023-04-01T04:37:58.133Z,6.25
2023-04-01T04:40:25.129Z,30.10
2023-04-01T04:42:52.053Z,34.65
2023-04-01T04:45:19.004Z,14.25
2023-04-01T04:47:46.000Z,6.82
2023-04-01T04:50:12.991Z,10.15
2023-04-01T04:52:39.904Z,7.53
2023-04-01T04:55:07.255Z,4.05
2023-04-01T04:57:34.198Z,4.55
2023-04-01T05:00:01.217Z,6.78
2023-04-01T05:02:28.298Z,5.45
2023-04-01T05:04:55.863Z,5.60
2023-04-01T05:07:22.741Z,4.72
2023-04-01T05:09:49.718Z,7.32
2023-04-01T05:12:16.813Z,17.70
2023-04-01T05:14:43.791Z,24.33
2023-04-01T05:17:13.543Z,17.70
2023-04-01T05:19:40.782Z,16.25
2023-04-01T05:22:07.890Z,22.60
2023-04-01T05:24:34.985Z,19.05
2023-04-01T05:27:02.259Z,15.23
2023-04-01T05:29:29.190Z,14.30
2023-04-01T05:31:56.119Z,11.15
2023-04-01T05:34:23.071Z,10.27
2023-04-01T05:36:50.030Z,21.90
2023-04-01T05:39:16.995Z,15.68
2023-04-01T05:41:43.961Z,15.73
2023-04-01T05:44:13.819Z,15.18
2023-04-01T05:49:07.891Z,15.45
2023-04-01T05:51:34.838Z,10.65
2023-04-01T05:54:01.786Z,6.15
2023-04-01T05:56:28.625Z,4.20
2023-04-01T05:58:55.752Z,3.53
2023-04-01T06:01:22.931Z,4.60
2023-04-01T06:03:50.037Z,3.85
2023-04-01T06:06:29.744Z,2.87
2023-04-01T06:08:59.960Z,3.47
2023-04-01T06:12:08.185Z,3.12
2023-04-01T06:14:57.161Z,3.72
2023-04-01T06:17:49.259Z,14.10
2023-04-01T06:20:36.519Z,5.10
2023-04-01T06:23:15.960Z,3.60
2023-04-01T06:26:10.660Z,4.20
2023-04-01T06:28:56.232Z,5.25
2023-04-01T06:32:00.084Z,5.70
2023-04-01T06:34:36.015Z,4.70
2023-04-01T06:37:40.478Z,4.25
2023-04-01T06:40:26.016Z,8.98
2023-04-01T06:43:04.402Z,6.40
2023-04-01T06:45:37.380Z,4.50
2023-04-01T06:48:07.359Z,6.28
2023-04-01T06:50:53.864Z,5.70
2023-04-01T06:53:47.079Z,5.93
2023-04-01T06:56:22.016Z,7.00
2023-04-01T06:59:03.548Z,6.65
2023-04-01T07:01:37.029Z,6.35
2023-04-01T07:04:12.635Z,3.42
2023-04-01T07:07:01.622Z,5.10
2023-04-01T07:09:56.834Z,5.00
2023-04-01T07:12:33.506Z,3.85
2023-04-01T07:15:05.141Z,3.62
2023-04-01T07:17:36.764Z,4.90
2023-04-01T07:20:22.220Z,5.25
2023-04-01T07:22:52.742Z,3.80
2023-04-01T07:25:19.670Z,3.35
2023-04-01T07:27:47.634Z,3.75
2023-04-01T07:30:19.384Z,5.30
2023-04-01T07:33:00.764Z,5.40
2023-04-01T07:35:32.341Z,2.78
2023-04-01T07:38:19.348Z,4.20
2023-04-01T07:40:57.320Z,2.25
2023-04-01T07:43:44.753Z,3.20
2023-04-01T07:46:31.899Z,4.05
2023-04-01T07:49:01.715Z,4.57
2023-04-01T07:54:25.803Z,5.43
2023-04-01T07:56:52.705Z,5.47
2023-04-01T07:59:44.199Z,4.43
2023-04-01T08:02:40.925Z,4.15
2023-04-01T08:05:07.839Z,2.17
2023-04-01T08:07:51.660Z,3.87
2023-04-01T08:10:53.663Z,3.78
2023-04-01T08:13:50.501Z,6.70
2023-04-01T08:16:26.443Z,5.03
2023-04-01T08:19:11.502Z,5.18
2023-04-01T08:21:52.382Z,4.12
2023-04-01T08:24:44.450Z,4.95
2023-04-01T08:27:24.888Z,6.35
2023-04-01T08:30:02.171Z,6.25
2023-04-01T08:32:38.424Z,7.32
2023-04-01T08:35:19.425Z,6.37
2023-04-01T08:37:47.017Z,6.80
2023-04-01T08:40:32.379Z,7.35
2023-04-01T08:42:59.375Z,7.80
2023-04-01T08:45:32.566Z,7.10
2023-04-01T08:48:26.124Z,5.68
2023-04-01T08:50:52.981Z,7.60
2023-04-01T08:53:31.735Z,5.75
2023-04-01T08:56:19.451Z,4.70
2023-04-01T08:59:24.603Z,4.28
2023-04-01T09:02:16.998Z,3.25
2023-04-01T09:05:17.681Z,5.75
2023-04-01T09:07:52.943Z,3.67
2023-04-01T09:10:28.889Z,3.28
2023-04-01T09:13:42.868Z,4.05
2023-04-01T09:16:18.244Z,3.08
2023-04-01T09:19:18.318Z,6.82
2023-04-01T09:22:07.177Z,2.92
2023-04-01T09:25:11.764Z,2.67
2023-04-01T09:27:58.979Z,5.28
2023-04-01T09:30:43.948Z,2.42
2023-04-01T09:33:40.002Z,2.10
2023-04-01T09:36:18.729Z,2.90
2023-04-01T09:39:24.036Z,1.93
2023-04-01T09:42:04.510Z,3.55
2023-04-01T09:44:52.114Z,2.25
2023-04-01T09:47:47.115Z,2.75
2023-04-01T09:50:34.297Z,3.08
2023-04-01T09:53:28.909Z,1.77
2023-04-01T09:56:14.134Z,4.55
2023-04-01T09:58:55.975Z,3.28
2023-04-01T10:01:58.913Z,2.03
2023-04-01T10:04:25.745Z,2.12
2023-04-01T10:07:40.642Z,2.45
2023-04-01T10:10:48.058Z,1.80
2023-04-01T10:13:18.025Z,1.30
2023-04-01T10:16:15.610Z,3.67
2023-04-01T10:19:12.965Z,3.58
2023-04-01T10:22:03.544Z,5.22
2023-04-01T10:25:07.187Z,1.92
2023-04-01T10:28:11.842Z,1.87
2023-04-01T10:31:23.644Z,1.50
2023-04-01T10:34:21.184Z,0.85
2023-04-01T10:36:55.235Z,2.42
2023-04-01T10:39:40.620Z,2.20
2023-04-01T10:42:24.777Z,3.62
2023-04-01T10:45:26.153Z,0.70
2023-04-01T10:48:18.680Z,1.15
2023-04-01T10:51:12.324Z,2.33
2023-04-01T10:53:59.677Z,2.55
2023-04-01T10:56:41.557Z,1.73
2023-04-01T10:59:14.490Z,1.80
2023-04-01T11:02:11.228Z,3.10
2023-04-01T11:05:08.906Z,2.35
2023-04-01T11:08:06.433Z,4.50
2023-04-01T11:11:19.779Z,2.05
2023-04-01T11:14:08.801Z,2.87
2023-04-01T11:16:57.212Z,1.45
2023-04-01T11:19:51.781Z,2.87
2023-04-01T11:22:53.073Z,4.85
2023-04-01T11:25:37.409Z,1.00
2023-04-01T11:28:24.783Z,2.58
2023-04-01T11:31:20.645Z,4.12
2023-04-01T11:33:59.094Z,1.37
2023-04-01T11:36:37.974Z,1.58
2023-04-01T11:39:22.958Z,1.42
2023-04-01T11:42:21.056Z,1.45
2023-04-01T11:45:02.123Z,2.15
2023-04-01T11:48:13.481Z,1.45
2023-04-01T11:51:09.161Z,1.83
2023-04-01T11:53:36.028Z,3.60
2023-04-01T11:56:09.187Z,5.25
2023-04-01T11:58:36.128Z,1.73
2023-04-01T12:01:34.490Z,2.87
2023-04-01T12:04:23.337Z,3.55
2023-04-01T12:06:56.490Z,2.33
2023-04-01T12:09:26.349Z,2.87
2023-04-01T12:12:12.254Z,2.47
2023-04-01T12:15:24.512Z,5.12
2023-04-01T12:17:57.453Z,2.55
2023-04-01T12:20:39.597Z,5.37
2023-04-01T12:23:20.778Z,2.05
2023-04-01T12:25:59.633Z,2.60
2023-04-01T12:29:08.583Z,1.37
2023-04-01T12:31:52.736Z,2.45
2023-04-01T12:34:32.256Z,18.87
2023-04-01T12:37:19.239Z,10.20
2023-04-01T12:39:53.140Z,6.00
2023-04-01T12:42:53.693Z,3.47
2023-04-01T12:45:31.795Z,3.12
2023-04-01T12:48:40.293Z,1.62
2023-04-01T12:51:28.141Z,1.48
2023-04-01T12:54:13.228Z,1.75
2023-04-01T12:56:40.084Z,3.60
2023-04-01T12:59:31.991Z,2.33
2023-04-01T13:02:29.719Z,4.12
2023-04-01T13:05:23.180Z,2.83
2023-04-01T13:08:03.574Z,8.35
2023-04-01T13:10:33.771Z,4.82
2023-04-01T13:13:41.101Z,7.10
2023-04-01T13:16:23.233Z,1.00
2023-04-01T13:19:14.626Z,2.22
2023-04-01T13:22:09.092Z,6.40
2023-04-01T13:24:42.596Z,1.20
2023-04-01T13:27:47.363Z,4.85
2023-04-01T13:30:46.275Z,2.83
2023-04-01T13:33:39.688Z,3.87
2023-04-01T13:36:19.527Z,2.42
2023-04-01T13:38:56.641Z,1.70
2023-04-01T13:41:39.472Z,1.77
2023-04-01T13:44:24.357Z,1.52
2023-04-01T13:47:09.399Z,2.40
2023-04-01T13:50:11.421Z,3.12
2023-04-01T13:52:47.272Z,6.07
2023-04-01T13:55:33.127Z,4.82
2023-04-01T13:58:15.294Z,4.10
2023-04-01T14:01:06.894Z,6.47
2023-04-01T14:04:06.128Z,7.62
2023-04-01T14:06:50.697Z,9.95
2023-04-01T14:09:53.062Z,4.53
2023-04-01T14:12:30.148Z,2.05
2023-04-01T14:15:24.838Z,0.80
2023-04-01T14:17:54.641Z,3.67
2023-04-01T14:20:24.537Z,1.85
2023-04-01T14:23:16.398Z,2.53
2023-04-01T14:25:43.325Z,2.67
2023-04-01T14:28:16.247Z,2.83
2023-04-01T14:31:01.783Z,2.40
2023-04-01T14:33:48.318Z,0.80
2023-04-01T14:36:43.181Z,1.50
2023-04-01T14:39:31.550Z,1.33
2023-04-01T14:42:22.408Z,1.95
2023-04-01T14:44:56.707Z,1.20
2023-04-01T14:48:01.913Z,3.47
2023-04-01T14:50:41.424Z,3.15
2023-04-01T14:53:08.395Z,1.67
2023-04-01T14:55:44.504Z,1.25
2023-04-01T14:58:15.741Z,1.02
2023-04-01T15:00:53.577Z,1.00
2023-04-01T15:03:28.320Z,1.45
2023-04-01T15:06:13.454Z,0.50
2023-04-01T15:08:59.132Z,1.08
2023-04-01T15:11:35.009Z,2.12
2023-04-01T15:14:30.607Z,0.50
2023-04-01T15:17:08.522Z,0.52
2023-04-01T15:19:57.393Z,2.65
2023-04-01T15:22:32.085Z,1.00
2023-04-01T15:25:27.235Z,0.98
2023-04-01T15:27:57.130Z,0.20
2023-04-01T15:30:37.036Z,0.50
2023-04-01T15:33:13.225Z,1.23
2023-04-01T15:36:07.792Z,0.80
2023-04-01T15:38:39.952Z,0.60
2023-04-01T15:41:27.173Z,2.85
2023-04-01T15:43:54.135Z,0.55
2023-04-01T15:46:33.010Z,0.50
2023-04-01T15:49:32.808Z,0.60
2023-04-01T15:52:26.304Z,1.87
2023-04-01T15:55:13.559Z,1.05
2023-04-01T15:57:47.241Z,0.90
2023-04-01T16:00:58.417Z,3.28
2023-04-01T16:03:34.450Z,4.12
2023-04-01T16:06:01.382Z,3.42
2023-04-01T16:08:47.449Z,4.12
2023-04-01T16:11:53.119Z,2.70
2023-04-01T16:14:40.239Z,3.55
2023-04-01T16:17:28.719Z,2.75
2023-04-01T16:20:11.315Z,68.25
2023-04-01T16:22:51.670Z,56.97
2023-04-01T16:25:43.083Z,25.33
2023-04-01T16:28:35.601Z,32.35
2023-04-01T16:31:14.462Z,24.35
2023-04-01T16:34:09.287Z,14.90
2023-04-01T16:36:55.598Z,9.10
2023-04-01T16:39:58.440Z,4.35
2023-04-01T16:42:47.811Z,6.87
2023-04-01T16:45:30.097Z,5.55
2023-04-01T16:48:07.422Z,12.57
2023-04-01T16:51:00.676Z,6.25
2023-04-01T16:53:49.613Z,3.40
2023-04-01T16:56:31.516Z,11.25
2023-04-01T16:59:07.887Z,12.70
2023-04-01T17:01:44.769Z,9.65
2023-04-01T17:04:27.144Z,9.20
2023-04-01T17:07:03.670Z,9.90
2023-04-01T17:10:16.536Z,8.40
2023-04-01T17:13:02.143Z,7.03
2023-04-01T17:15:41.185Z,5.25
2023-04-01T17:18:26.533Z,4.30
2023-04-01T17:21:01.289Z,7.68
2023-04-01T17:23:45.105Z,6.80
2023-04-01T17:26:30.856Z,10.85
2023-04-01T17:29:16.186Z,14.80
2023-04-01T17:32:10.942Z,30.73
2023-04-01T17:35:02.428Z,27.70
2023-04-01T17:37:56.322Z,19.87
2023-04-01T17:40:30.928Z,15.70
2023-04-01T17:43:30.259Z,50.97
2023-04-01T17:46:02.410Z,77.80
2023-04-01T17:48:58.711Z,57.50
2023-04-01T17:51:57.812Z,55.67
2023-04-01T17:54:57.135Z,73.75
2023-04-01T17:57:46.054Z,56.75
2023-04-01T18:00:27.131Z,29.60
2023-04-01T18:03:31.535Z,32.00
2023-04-01T18:06:41.104Z,31.83
2023-04-01T18:09:36.954Z,25.40
2023-04-01T18:12:32.916Z,29.12
2023-04-01T18:17:45.208Z,36.70
2023-04-01T18:20:24.276Z,51.33
2023-04-01T18:23:09.817Z,55.20
2023-04-01T18:25:42.138Z,80.15
2023-04-01T18:28:39.939Z,89.25
2023-04-01T18:31:23.213Z,68.10
2023-04-01T18:33:50.662Z,63.28
2023-04-01T18:36:42.619Z,63.87
2023-04-01T18:39:17.216Z,39.55
2023-04-01T18:42:04.417Z,38.55
2023-04-01T18:44:47.163Z,45.83
2023-04-01T18:47:32.448Z,37.55
2023-04-01T18:50:21.551Z,49.35
2023-04-01T18:52:59.983Z,55.03
2023-04-01T18:55:30.029Z,64.22
2023-04-01T18:58:27.574Z,66.15
2023-04-01T19:01:40.775Z,57.00
2023-04-01T19:04:35.079Z,57.28
2023-04-01T19:07:23.502Z,101.95
2023-04-01T19:09:51.969Z,48.15
2023-04-01T19:12:35.877Z,79.97
2023-04-01T19:15:36.964Z,140.07
2023-04-01T19:18:27.500Z,100.82
2023-04-01T19:20:58.641Z,55.70
2023-04-01T19:23:44.122Z,39.22
2023-04-01T19:26:32.654Z,43.38
2023-04-01T19:29:28.685Z,50.58
2023-04-01T19:32:34.223Z,43.92
2023-04-01T19:35:18.959Z,55.75
2023-04-01T19:38:13.685Z,44.28
2023-04-01T19:41:07.912Z,43.87
2023-04-01T19:44:24.601Z,40.80
2023-04-01T19:46:56.093Z,38.92
2023-04-01T19:49:34.323Z,41.67
2023-04-01T19:52:05.084Z,37.83
2023-04-01T19:54:41.349Z,35.17
2023-04-01T19:57:18.283Z,28.65
2023-04-01T20:00:05.213Z,23.40
2023-04-01T20:02:38.210Z,25.48
2023-04-01T20:05:27.085Z,27.35
2023-04-01T20:08:01.396Z,22.65
2023-04-01T20:10:43.906Z,19.02
2023-04-01T20:13:23.023Z,14.68
2023-04-01T20:16:02.852Z,14.35
2023-04-01T20:21:26.196Z,13.50
2023-04-01T20:24:03.563Z,14.32
2023-04-01T20:26:35.575Z,13.75
2023-04-01T20:29:20.330Z,12.48
2023-04-01T20:32:14.790Z,18.25
2023-04-01T20:35:13.852Z,9.05
2023-04-01T20:37:58.335Z,10.55
2023-04-01T20:40:32.992Z,10.32
2023-04-01T20:43:14.811Z,13.30
2023-04-01T20:45:47.796Z,9.80
2023-04-01T20:48:28.499Z,11.38
2023-04-01T20:51:00.729Z,10.68
2023-04-01T20:53:38.477Z,11.12
2023-04-01T20:56:17.623Z,10.82
2023-04-01T20:59:02.836Z,11.73
2023-04-01T21:01:48.388Z,12.20
2023-04-01T21:04:34.207Z,12.63
2023-04-01T21:07:38.766Z,10.35
2023-04-01T21:10:20.032Z,11.85
2023-04-01T21:12:56.809Z,11.95
2023-04-01T21:16:01.645Z,17.60
2023-04-01T21:18:46.768Z,16.87
2023-04-01T21:22:01.416Z,12.82
2023-04-01T21:24:50.042Z,15.35
2023-04-01T21:27:25.934Z,10.18
2023-04-01T21:30:11.200Z,8.77
2023-04-01T21:32:37.990Z,9.50
2023-04-01T21:35:31.554Z,9.75
2023-04-01T21:38:15.339Z,9.80
2023-04-01T21:41:00.414Z,7.53
2023-04-01T21:43:58.327Z,9.00
2023-04-01T21:46:47.775Z,23.67
2023-04-01T21:49:25.908Z,18.20
2023-04-01T21:52:29.846Z,13.80
2023-04-01T21:55:21.341Z,14.02
2023-04-01T21:58:11.174Z,14.52
2023-04-01T22:03:32.380Z,12.43
2023-04-01T22:06:53.507Z,13.02
2023-04-01T22:09:42.531Z,10.00
2023-04-01T22:12:33.202Z,11.73
2023-04-01T22:15:21.778Z,12.37
2023-04-01T22:18:15.168Z,9.85
2023-04-01T22:21:06.405Z,17.42
2023-04-01T22:23:46.591Z,16.50
2023-04-01T22:26:44.508Z,13.05
2023-04-01T22:29:31.126Z,12.07
2023-04-01T22:32:20.916Z,12.20
2023-04-01T22:37:33.361Z,3.97
2023-04-01T22:40:24.643Z,4.80
2023-04-01T22:43:02.643Z,6.55
2023-04-01T22:45:51.036Z,5.93
2023-04-01T22:48:39.643Z,10.43
2023-04-01T22:54:07.836Z,7.25
2023-04-01T22:59:37.790Z,5.93
2023-04-01T23:02:26.944Z,8.15
2023-04-01T23:04:59.355Z,6.07
2023-04-01T23:07:47.723Z,5.35
2023-04-01T23:10:45.853Z,7.68
2023-04-01T23:13:22.201Z,6.97
2023-04-01T23:15:49.405Z,5.68
2023-04-01T23:18:37.483Z,9.55
2023-04-01T23:21:17.623Z,7.05
2023-04-01T23:23:51.412Z,7.78
2023-04-01T23:26:34.184Z,12.52
2023-04-01T23:29:01.710Z,7.35
2023-04-01T23:31:30.244Z,8.32
2023-04-01T23:34:07.016Z,9.65
2023-04-01T23:36:40.566Z,10.82
2023-04-01T23:39:25.217Z,13.50
2023-04-01T23:41:56.215Z,13.23
2023-04-01T23:44:26.850Z,13.82
2023-04-01T23:46:55.575Z,13.05
2023-04-01T23:49:26.805Z,10.88
2023-04-01T23:51:58.204Z,14.20
2023-04-01T23:55:16.487Z,12.85
2023-04-01T23:57:43.480Z,12.68
